createdAt,value
2022-12-23T00:01:48.791Z,99704.34
2022-12-23T00:06:56.010Z,99703.59
2022-12-23T00:12:20.598Z,99699.97
2022-12-23T00:17:27.702Z,99699.02
2022-12-23T00:22:52.974Z,99703.68
2022-12-23T00:28:02.552Z,99708.02
2022-12-23T00:33:09.665Z,99706.81
2022-12-23T00:38:17.572Z,99710.79
2022-12-23T00:43:24.693Z,99708.15
2022-12-23T00:48:49.700Z,99704.59
2022-12-23T00:53:56.862Z,99707.41
2022-12-23T00:59:03.906Z,99708.69
2022-12-23T01:04:32.089Z,99713.19
2022-12-23T01:09:39.203Z,99708.31
2022-12-23T01:14:46.414Z,99705.92
2022-12-23T01:19:53.530Z,99709.59
2022-12-23T01:25:00.786Z,99706.22
2022-12-23T01:30:10.102Z,99706.11
2022-12-23T01:35:17.516Z,99704.45
2022-12-23T01:40:24.627Z,99705.39
2022-12-23T01:45:33.712Z,99707.75
2022-12-23T01:50:45.971Z,99716.96
2022-12-23T01:55:59.405Z,99715.50
2022-12-23T02:01:24.403Z,99710.08
2022-12-23T02:06:52.851Z,99711.94
2022-12-23T02:12:27.328Z,99708.48
2022-12-23T02:17:38.968Z,99698.48
2022-12-23T02:23:09.527Z,99695.46
2022-12-23T02:28:44.867Z,99692.30
2022-12-23T02:33:59.631Z,99694.98
2022-12-23T02:39:10.879Z,99693.21
2022-12-23T02:44:26.790Z,99696.83
2022-12-23T02:49:37.992Z,99690.18
2022-12-23T02:54:51.602Z,99692.13
2022-12-23T03:00:01.405Z,99696.72
2022-12-23T03:05:23.099Z,99703.27
2022-12-23T03:10:42.559Z,99702.13
2022-12-23T03:15:55.085Z,99696.31
2022-12-23T03:21:08.114Z,99687.89
2022-12-23T03:26:20.096Z,99689.30
2022-12-23T03:31:30.498Z,99690.32
2022-12-23T03:36:43.163Z,99686.81
2022-12-23T03:41:54.425Z,99693.04
2022-12-23T03:47:08.438Z,99695.78
2022-12-23T03:52:21.621Z,99700.50
2022-12-23T03:57:36.222Z,99699.90
2022-12-23T04:02:55.074Z,99695.95
2022-12-23T04:08:06.478Z,99700.86
2022-12-23T04:13:13.673Z,99702.48
2022-12-23T04:18:20.775Z,99707.05
2022-12-23T04:23:27.837Z,99705.19
2022-12-23T04:28:35.097Z,99702.17
2022-12-23T04:33:42.342Z,99696.58
2022-12-23T04:38:49.519Z,99695.44
2022-12-23T04:43:56.628Z,99703.41
2022-12-23T04:49:03.855Z,99703.28
2022-12-23T04:54:10.941Z,99704.06
2022-12-23T04:59:18.144Z,99704.17
2022-12-23T05:04:25.351Z,99701.88
2022-12-23T05:09:32.472Z,99702.76
2022-12-23T05:14:39.708Z,99702.16
2022-12-23T05:19:46.821Z,99701.56
2022-12-23T05:24:53.912Z,99706.51
2022-12-23T05:30:01.108Z,99710.95
2022-12-23T05:35:09.763Z,99705.33
2022-12-23T05:40:23.263Z,99700.53
2022-12-23T05:45:32.137Z,99711.61
2022-12-23T05:50:40.185Z,99718.62
2022-12-23T05:55:45.733Z,99721.27
2022-12-23T06:00:52.886Z,99715.52
2022-12-23T06:06:00.052Z,99702.98
2022-12-23T06:11:08.677Z,99693.65
2022-12-23T06:16:16.004Z,99707.91
2022-12-23T06:21:23.520Z,99701.07
2022-12-23T06:26:31.239Z,99700.58
2022-12-23T06:31:38.619Z,99714.21
2022-12-23T06:36:45.959Z,99717.99
2022-12-23T06:41:53.260Z,99722.89
2022-12-23T06:47:00.361Z,99730.80
2022-12-23T06:52:08.481Z,99730.32
2022-12-23T06:57:15.686Z,99728.38
2022-12-23T07:02:22.915Z,99733.45
2022-12-23T07:07:32.336Z,99730.90
2022-12-23T07:12:40.992Z,99724.80
2022-12-23T07:17:50.674Z,99722.45
2022-12-23T07:22:59.492Z,99726.59
2022-12-23T07:28:08.103Z,99718.31
2022-12-23T07:33:15.403Z,99720.04
2022-12-23T07:38:22.621Z,99722.84
2022-12-23T07:43:29.755Z,99725.90
2022-12-23T07:48:37.247Z,99729.09
2022-12-23T07:53:44.511Z,99734.02
2022-12-23T07:58:53.025Z,99727.89
2022-12-23T08:04:00.395Z,99718.90
2022-12-23T08:09:09.629Z,99720.27
2022-12-23T08:14:16.845Z,99721.38
2022-12-23T08:19:24.031Z,99719.86
2022-12-23T08:24:31.193Z,99714.77
2022-12-23T08:29:38.330Z,99714.40
2022-12-23T08:34:46.052Z,99712.79
2022-12-23T08:39:53.270Z,99710.54
2022-12-23T08:45:01.183Z,99706.60
2022-12-23T08:50:12.125Z,99702.77
2022-12-23T08:55:19.356Z,99699.06
2022-12-23T09:00:26.674Z,99696.98
2022-12-23T09:05:34.222Z,99693.39
2022-12-23T09:10:45.531Z,99687.26
2022-12-23T09:15:53.079Z,99683.60
2022-12-23T09:21:04.088Z,99683.98
2022-12-23T09:26:12.243Z,99676.69
2022-12-23T09:31:22.647Z,99672.79
2022-12-23T09:36:30.623Z,99667.11
2022-12-23T09:41:50.125Z,99667.27
2022-12-23T09:47:02.134Z,99666.11
2022-12-23T09:52:15.096Z,99664.24
2022-12-23T09:57:27.762Z,99653.74
2022-12-23T10:02:48.657Z,99644.53
2022-12-23T10:08:00.276Z,99638.33
2022-12-23T10:13:21.017Z,99636.90
2022-12-23T10:18:36.711Z,99632.27
2022-12-23T10:24:08.514Z,99628.30
2022-12-23T10:29:21.216Z,99625.52
2022-12-23T10:34:38.757Z,99634.11
2022-12-23T10:39:52.755Z,99637.73
2022-12-23T10:45:26.216Z,99639.44
2022-12-23T10:50:55.526Z,99643.58
2022-12-23T10:56:04.823Z,99638.87
2022-12-23T11:01:23.819Z,99629.76
2022-12-23T11:06:37.575Z,99620.82
2022-12-23T11:12:05.927Z,99627.98
2022-12-23T11:17:23.991Z,99638.80
2022-12-23T11:22:31.290Z,99639.96
2022-12-23T11:27:38.499Z,99646.64
2022-12-23T11:32:46.352Z,99647.34
2022-12-23T11:37:53.832Z,99652.55
2022-12-23T11:43:04.155Z,99651.81
2022-12-23T11:48:31.031Z,99646.48
2022-12-23T11:53:43.750Z,99644.46
2022-12-23T11:58:55.487Z,99636.38
2022-12-23T12:04:06.477Z,99637.61
2022-12-23T12:09:15.704Z,99639.90
2022-12-23T12:14:31.255Z,99634.40
2022-12-23T12:19:44.924Z,99636.17
2022-12-23T12:24:56.834Z,99640.42
2022-12-23T12:30:08.957Z,99646.23
2022-12-23T12:35:43.896Z,99659.47
2022-12-23T12:40:55.159Z,99666.77
2022-12-23T12:46:24.203Z,99672.27
2022-12-23T12:51:48.128Z,99668.52
2022-12-23T12:56:57.909Z,99670.86
2022-12-23T13:02:29.743Z,99669.90
2022-12-23T13:07:46.212Z,99670.12
2022-12-23T13:13:02.745Z,99672.02
2022-12-23T13:18:24.967Z,99678.06
2022-12-23T13:23:45.222Z,99682.82
2022-12-23T13:29:03.075Z,99683.55
2022-12-23T13:34:26.132Z,99677.65
2022-12-23T13:39:44.659Z,99676.83
2022-12-23T13:44:52.304Z,99680.66
2022-12-23T13:50:09.379Z,99688.58
2022-12-23T13:55:33.873Z,99687.15
2022-12-23T14:00:41.281Z,99689.40
2022-12-23T14:05:50.778Z,99689.47
2022-12-23T14:11:00.848Z,99696.00
2022-12-23T14:16:33.037Z,99700.21
2022-12-23T14:21:52.084Z,99700.38
2022-12-23T14:27:22.038Z,99697.10
2022-12-23T14:32:37.399Z,99692.33
2022-12-23T14:37:44.698Z,99698.30
2022-12-23T14:43:11.965Z,99698.21
2022-12-23T14:49:09.622Z,99704.82
2022-12-23T14:54:38.654Z,99713.26
2022-12-23T14:59:52.110Z,99716.47
2022-12-23T15:05:01.987Z,99721.79
2022-12-23T15:10:17.451Z,99730.34
2022-12-23T15:15:27.025Z,99732.48
2022-12-23T15:20:35.424Z,99730.23
2022-12-23T15:25:47.536Z,99736.05
2022-12-23T15:30:57.652Z,99743.17
2022-12-23T15:36:07.015Z,99748.16
2022-12-23T15:41:19.798Z,99754.49
2022-12-23T15:46:30.434Z,99763.52
2022-12-23T15:57:09.017Z,99767.77
2022-12-23T16:07:50.106Z,99767.09
2022-12-23T16:13:00.120Z,99771.04
2022-12-23T16:18:23.258Z,99765.63
2022-12-23T16:23:35.949Z,99756.15
2022-12-23T16:28:49.602Z,99760.52
2022-12-23T16:33:59.898Z,99754.21
2022-12-23T16:39:21.757Z,99749.27
2022-12-23T16:44:29.022Z,99749.17
2022-12-23T16:49:37.433Z,99751.34
2022-12-23T16:54:44.680Z,99758.67
2022-12-23T16:59:52.181Z,99760.91
2022-12-23T17:05:00.446Z,99758.60
2022-12-23T17:10:10.312Z,99763.42
2022-12-23T17:15:23.419Z,99766.90
2022-12-23T17:20:31.839Z,99773.46
2022-12-23T17:25:39.247Z,99780.23
2022-12-23T17:30:46.846Z,99779.64
2022-12-23T17:35:56.059Z,99780.52
2022-12-23T17:41:04.489Z,99778.70
2022-12-23T17:46:16.524Z,99783.44
2022-12-23T17:51:26.533Z,99794.51
2022-12-23T17:56:34.078Z,99791.54
2022-12-23T18:01:41.446Z,99793.11
2022-12-23T18:06:48.995Z,99805.26
2022-12-23T18:11:56.646Z,99807.84
2022-12-23T18:17:04.202Z,99809.73
2022-12-23T18:22:19.688Z,99808.59
2022-12-23T18:27:27.099Z,99811.39
2022-12-23T18:32:35.824Z,99815.80
2022-12-23T18:37:43.222Z,99816.41
2022-12-23T18:42:53.791Z,99812.44
2022-12-23T18:48:14.659Z,99812.55
2022-12-23T18:53:25.382Z,99808.77
2022-12-23T18:58:32.974Z,99811.50
2022-12-23T19:03:40.361Z,99814.71
2022-12-23T19:08:55.757Z,99822.41
2022-12-23T19:14:09.433Z,99825.58
2022-12-23T19:19:16.753Z,99828.53
2022-12-23T19:24:24.114Z,99833.46
2022-12-23T19:29:31.472Z,99828.47
2022-12-23T19:34:38.823Z,99831.98
2022-12-23T19:39:46.177Z,99827.04
2022-12-23T19:44:53.349Z,99818.67
2022-12-23T19:50:02.853Z,99823.05
2022-12-23T19:55:13.245Z,99822.06
2022-12-23T20:00:20.924Z,99822.27
2022-12-23T20:05:52.127Z,99822.02
2022-12-23T20:12:11.207Z,99820.98
2022-12-23T20:17:30.037Z,99816.71
2022-12-23T20:22:54.536Z,99823.23
2022-12-23T20:28:08.950Z,99827.21
2022-12-23T20:59:17.290Z,99844.52
2022-12-23T21:06:55.151Z,99861.75
2022-12-23T21:12:44.191Z,99866.45
2022-12-23T21:18:02.337Z,99880.82
2022-12-23T21:23:39.681Z,99880.53
2022-12-23T21:28:56.019Z,99884.74
2022-12-23T21:35:14.466Z,99887.94
2022-12-23T21:41:14.144Z,99887.65
2022-12-23T21:46:26.891Z,99896.15
2022-12-23T21:51:40.676Z,99893.62
2022-12-23T21:56:53.332Z,99891.36
2022-12-23T22:02:06.838Z,99890.95
2022-12-23T22:08:20.585Z,99886.05
2022-12-23T22:14:02.002Z,99872.40
2022-12-23T22:40:25.982Z,99859.98
2022-12-23T22:46:02.127Z,99860.99
2022-12-23T22:51:14.932Z,99845.77
2022-12-23T22:56:26.332Z,99850.04
2022-12-23T23:01:46.473Z,99850.27
2022-12-23T23:06:54.786Z,99843.37
2022-12-23T23:12:02.505Z,99847.96
2022-12-23T23:17:09.624Z,99847.49
2022-12-23T23:22:16.799Z,99851.32
2022-12-23T23:27:23.995Z,99849.09
2022-12-23T23:32:31.482Z,99852.85
2022-12-23T23:37:38.816Z,99863.67
2022-12-23T23:42:46.064Z,99872.02
2022-12-23T23:47:53.524Z,99873.17
2022-12-23T23:53:00.856Z,99883.88
2022-12-23T23:58:09.170Z,99884.75
